Time;durP1;ratioP1;P1;durP2;ratioP2;P2;SDS_P1;SDS_P2;PMS_P1;PMS_P2;Temp;Humidity;BMP_temperature;BMP_pressure;BME280_temperature;BME280_humidity;BME280_pressure;Samples;Min_cycle;Max_cycle;Signal;HPM_P1;HPM_P2
2021/12/14 00:01:18;;;;;;;5.47;2.40;;;0.00;90.60;;;;;;5030380;28;20029;-76
2021/12/14 00:03:47;;;;;;;6.10;2.83;;;-0.20;91.10;;;;;;5017267;28;20345;-76
2021/12/14 00:06:17;;;;;;;4.70;2.40;;;-0.40;90.90;;;;;;5014260;28;20028;-77
2021/12/14 00:08:54;;;;;;;5.63;3.00;;;-0.60;91.20;;;;;;5013708;28;20109;-76
2021/12/14 00:12:11;;;;;;;4.05;2.40;;;-0.80;90.80;;;;;;5013602;28;20038;-76
2021/12/14 00:16:54;;;;;;;5.25;2.67;;;-0.70;88.30;;;;;;5015843;28;20053;-77
2021/12/14 00:19:20;;;;;;;5.65;2.38;;;-0.60;88.50;;;;;;5015698;28;20030;-75
2021/12/14 00:21:51;;;;;;;6.63;3.75;;;-0.60;88.70;;;;;;5017673;28;20116;-76
2021/12/14 00:24:18;;;;;;;8.32;3.78;;;-0.60;88.90;;;;;;5021416;28;20026;-76
2021/12/14 00:26:54;;;;;;;9.23;3.88;;;-0.50;88.90;;;;;;5016055;28;20033;-76
2021/12/14 00:29:26;;;;;;;6.70;3.60;;;-0.50;88.90;;;;;;5008543;28;20046;-76
2021/12/14 00:31:54;;;;;;;5.13;2.90;;;-0.50;88.60;;;;;;5012684;28;20014;-76
2021/12/14 00:34:34;;;;;;;4.72;2.65;;;-0.50;88.70;;;;;;5013919;28;20030;-76
2021/12/14 00:37:01;;;;;;;4.50;2.38;;;-0.50;89.20;;;;;;5013293;28;20374;-76
2021/12/14 00:39:27;;;;;;;4.10;2.45;;;-0.50;89.50;;;;;;5015434;28;20030;-75
2021/12/14 00:41:53;;;;;;;3.97;2.10;;;-0.60;89.60;;;;;;5014994;28;20120;-76
2021/12/14 00:44:20;;;;;;;4.97;2.70;;;-0.60;90.00;;;;;;5018068;28;20026;-75
2021/12/14 00:46:46;;;;;;;3.85;2.13;;;-0.60;89.60;;;;;;5013763;28;20457;-75
2021/12/14 00:49:13;;;;;;;4.22;2.38;;;-0.70;89.40;;;;;;5014624;28;20053;-77
2021/12/14 00:51:39;;;;;;;5.32;2.60;;;-0.60;88.60;;;;;;5014571;28;20018;-77
2021/12/14 00:54:10;;;;;;;4.60;2.40;;;-0.50;89.10;;;;;;5014167;28;20354;-77
2021/12/14 00:56:36;;;;;;;6.18;3.35;;;-0.60;90.90;;;;;;5015996;28;20026;-78
2021/12/14 00:59:05;;;;;;;5.20;2.60;;;-0.80;91.30;;;;;;5017665;28;20083;-76
2021/12/14 01:01:39;;;;;;;4.25;2.42;;;-0.90;90.90;;;;;;5019005;28;20034;-77
2021/12/14 01:04:09;;;;;;;3.72;2.03;;;-1.00;90.20;;;;;;5018995;28;20116;-76
2021/12/14 01:06:44;;;;;;;3.53;2.00;;;-0.90;89.40;;;;;;5018257;28;20046;-77
2021/12/14 01:09:10;;;;;;;3.58;1.90;;;-0.90;89.50;;;;;;5017467;28;20111;-76
2021/12/14 01:11:47;;;;;;;4.85;2.60;;;-0.90;90.00;;;;;;5016372;28;20105;-76
2021/12/14 01:14:27;;;;;;;4.55;2.63;;;-1.00;90.10;;;;;;5018606;28;20018;-77
2021/12/14 01:17:12;;;;;;;3.58;2.00;;;-1.00;90.00;;;;;;5018036;28;20017;-76
2021/12/14 01:19:49;;;;;;;3.47;2.00;;;-1.00;89.60;;;;;;5018051;28;20080;-76
2021/12/14 01:22:33;;;;;;;4.40;2.38;;;-1.10;89.70;;;;;;5016682;28;20091;-75
2021/12/14 01:25:03;;;;;;;;;;;-1.10;90.10;;;;;;5023743;28;20040;-76
2021/12/14 01:27:34;;;;;;;4.03;2.08;;;-1.20;90.30;;;;;;5023203;28;19972;-77
2021/12/14 01:30:05;;;;;;;3.45;2.10;;;-1.20;88.70;;;;;;5018195;28;20334;-76
2021/12/14 01:32:35;;;;;;;6.70;3.42;;;-1.10;87.90;;;;;;5016589;28;20369;-77
2021/12/14 01:35:05;;;;;;;6.13;3.40;;;-1.10;89.30;;;;;;5017283;28;20632;-76
2021/12/14 01:37:40;;;;;;;7.93;4.13;;;-1.10;89.50;;;;;;5021208;28;20022;-76
2021/12/14 01:40:17;;;;;;;6.97;3.95;;;-1.10;88.90;;;;;;5017079;28;20022;-75
2021/12/14 01:42:43;;;;;;;7.90;3.70;;;-1.10;90.00;;;;;;5017273;28;20338;-76
2021/12/14 01:45:20;;;;;;;5.43;3.15;;;-1.10;89.50;;;;;;5018080;28;20055;-76
2021/12/14 01:47:49;;;;;;;3.83;2.30;;;-1.10;90.00;;;;;;5016524;28;20034;-76
2021/12/14 01:50:26;;;;;;;3.85;2.38;;;-1.20;90.40;;;;;;5018221;28;20065;-75
2021/12/14 01:52:56;;;;;;;3.60;2.20;;;-1.20;89.80;;;;;;5016827;28;20029;-75
2021/12/14 01:55:25;;;;;;;4.35;2.50;;;-1.20;89.90;;;;;;5017991;28;20022;-76
2021/12/14 01:57:55;;;;;;;4.50;2.22;;;-1.30;91.10;;;;;;5018432;28;20355;-77
2021/12/14 02:00:33;;;;;;;4.10;2.42;;;-1.40;91.40;;;;;;5017828;28;20026;-76
2021/12/14 02:03:04;;;;;;;5.57;3.05;;;-1.50;91.40;;;;;;5032153;28;20064;-76
2021/12/14 02:05:36;;;;;;;4.90;2.60;;;-1.50;91.30;;;;;;5017978;28;20088;-76
2021/12/14 02:08:12;;;;;;;3.38;2.10;;;-1.60;90.70;;;;;;5016015;28;20101;-76
2021/12/14 02:10:38;;;;;;;3.83;1.88;;;-1.50;88.80;;;;;;5016703;28;20026;-76
2021/12/14 02:13:05;;;;;;;5.45;2.70;;;-1.40;88.30;;;;;;5016813;28;20032;-76
2021/12/14 02:15:38;;;;;;;4.03;2.22;;;-1.40;89.80;;;;;;5017063;28;20029;-76
2021/12/14 02:18:12;;;;;;;3.50;2.10;;;-1.40;90.30;;;;;;5015735;28;20345;-76
2021/12/14 02:20:43;;;;;;;4.55;2.60;;;-1.40;90.40;;;;;;5000325;28;20032;-76
2021/12/14 02:23:09;;;;;;;5.78;3.10;;;-1.40;89.30;;;;;;4998526;28;20026;-76
2021/12/14 02:25:35;;;;;;;7.07;3.40;;;-1.30;89.70;;;;;;5016630;28;20401;-76
2021/12/14 02:28:05;;;;;;;4.60;2.50;;;-1.30;90.40;;;;;;5016636;28;20129;-77
2021/12/14 02:30:32;;;;;;;8.45;3.40;;;-1.40;91.10;;;;;;5017383;28;20037;-77
2021/12/14 02:33:08;;;;;;;10.60;6.03;;;-1.40;90.40;;;;;;5016729;28;20022;-76
2021/12/14 02:35:35;;;;;;;6.70;3.63;;;-1.20;89.10;;;;;;5017237;28;20033;-76
2021/12/14 02:38:10;;;;;;;7.95;3.42;;;-1.10;89.00;;;;;;5015700;28;20077;-76
2021/12/14 02:40:57;;;;;;;6.53;3.28;;;-1.10;89.40;;;;;;5015018;28;20037;-77
2021/12/14 02:43:54;;;;;;;8.23;4.32;;;-1.00;88.80;;;;;;5025949;28;20030;-75
2021/12/14 02:46:33;;;;;;;4.13;2.22;;;-0.90;88.60;;;;;;5006124;28;20066;-76
2021/12/14 02:49:02;;;;;;;4.15;2.40;;;-1.00;89.70;;;;;;5016426;28;20022;-75
2021/12/14 02:51:35;;;;;;;4.40;2.25;;;-1.00;89.30;;;;;;5015047;28;20029;-76
2021/12/14 02:54:06;;;;;;;7.72;4.18;;;-1.10;89.40;;;;;;5015671;28;20097;-76
2021/12/14 02:56:35;;;;;;;6.43;3.53;;;-1.10;88.60;;;;;;5016566;28;20030;-76
2021/12/14 02:59:14;;;;;;;5.18;3.10;;;-1.10;89.40;;;;;;5016698;28;20026;-76
2021/12/14 03:01:43;;;;;;;7.00;5.10;;;-1.00;87.40;;;;;;5014978;28;20319;-76
2021/12/14 03:04:10;;;;;;;5.13;3.47;;;-1.00;89.10;;;;;;5010144;28;20093;-76
2021/12/14 03:06:48;;;;;;;7.05;3.72;;;-1.10;89.10;;;;;;5015261;28;20080;-76
2021/12/14 03:09:54;;;;;;;5.53;3.55;;;-1.20;89.30;;;;;;5015449;28;20028;-76
2021/12/14 03:12:34;;;;;;;5.80;3.25;;;-1.20;88.90;;;;;;5002887;28;20057;-76
2021/12/14 03:15:09;;;;;;;7.97;4.15;;;-1.20;88.70;;;;;;5013922;28;20602;-76
2021/12/14 03:17:36;;;;;;;8.27;5.00;;;-1.30;90.10;;;;;;5015244;28;20112;-76
2021/12/14 03:20:13;;;;;;;8.27;6.05;;;-1.40;89.50;;;;;;5013247;28;20083;-76
2021/12/14 03:22:47;;;;;;;6.90;4.95;;;-1.40;89.40;;;;;;5001593;28;20040;-76
2021/12/14 03:25:15;;;;;;;5.53;3.00;;;-1.40;89.30;;;;;;5016769;28;20041;-76
2021/12/14 03:27:43;;;;;;;3.88;2.00;;;-1.40;88.90;;;;;;5019616;28;20381;-75
2021/12/14 03:30:26;;;;;;;4.60;2.55;;;-1.40;89.30;;;;;;5021581;28;20057;-76
2021/12/14 03:32:54;;;;;;;7.03;4.20;;;-1.40;89.10;;;;;;5036419;28;20021;-75
2021/12/14 03:35:21;;;;;;;5.85;3.05;;;-1.40;90.20;;;;;;5023837;28;20621;-75
2021/12/14 03:37:48;;;;;;;6.20;3.05;;;-1.50;89.90;;;;;;5014178;28;20018;-75
2021/12/14 03:40:19;;;;;;;5.22;3.25;;;-1.50;89.70;;;;;;5016314;28;20037;-75
2021/12/14 03:42:45;;;;;;;5.40;3.00;;;-1.50;89.70;;;;;;5016403;28;20038;-75
2021/12/14 03:45:16;;;;;;;5.05;2.95;;;-1.50;88.90;;;;;;5016163;28;20091;-77
2021/12/14 03:47:48;;;;;;;4.63;2.60;;;-1.40;87.40;;;;;;5016431;28;20030;-76
2021/12/14 03:50:19;;;;;;;5.97;3.50;;;-1.30;87.10;;;;;;5014565;28;20034;-76
2021/12/14 03:52:45;;;;;;;7.03;3.47;;;-1.30;88.60;;;;;;5015194;28;20026;-76
2021/12/14 03:55:25;;;;;;;5.85;3.10;;;-1.40;89.50;;;;;;5016191;28;20418;-76
2021/12/14 03:57:51;;;;;;;4.68;2.65;;;-1.40;89.50;;;;;;5015144;28;20029;-76
2021/12/14 04:00:23;;;;;;;11.68;4.10;;;-1.40;89.10;;;;;;5014911;28;20030;-76
2021/12/14 04:02:53;;;;;;;6.00;2.95;;;-1.40;89.10;;;;;;5016229;28;20037;-76
2021/12/14 04:05:20;;;;;;;5.15;3.05;;;-1.50;89.30;;;;;;5014949;28;20065;-76
2021/12/14 04:07:47;;;;;;;5.32;3.20;;;-1.50;89.00;;;;;;5013923;28;20426;-75
2021/12/14 04:10:27;;;;;;;5.45;3.17;;;-1.50;90.00;;;;;;5014886;28;20038;-76
2021/12/14 04:12:54;;;;;;;5.88;3.20;;;-1.60;89.90;;;;;;5015856;28;20037;-75
2021/12/14 04:15:20;;;;;;;6.40;3.42;;;-1.60;89.70;;;;;;5015980;28;20128;-75
2021/12/14 04:17:46;;;;;;;6.38;3.58;;;-1.70;89.60;;;;;;5016017;28;20092;-76
2021/12/14 04:20:23;;;;;;;5.07;3.00;;;-1.60;88.70;;;;;;5014336;28;20033;-76
2021/12/14 04:22:49;;;;;;;4.93;3.00;;;-1.50;88.40;;;;;;5014605;28;20033;-75
2021/12/14 04:25:23;;;;;;;4.25;2.63;;;-1.60;89.40;;;;;;5015844;28;20030;-76
2021/12/14 04:27:53;;;;;;;5.97;3.53;;;-1.50;87.60;;;;;;5014430;28;20030;-75
2021/12/14 04:30:22;;;;;;;6.22;3.63;;;-1.40;87.80;;;;;;5021171;28;20084;-76
2021/12/14 04:32:50;;;;;;;6.05;3.20;;;-1.40;88.70;;;;;;5039868;28;20025;-76
2021/12/14 04:35:20;;;;;;;6.82;3.60;;;-1.40;89.30;;;;;;5023562;28;20057;-75
2021/12/14 04:37:56;;;;;;;6.45;4.10;;;-1.40;89.40;;;;;;5023587;28;20021;-75
2021/12/14 04:54:20;;;;;;;9.85;4.15;;;-0.50;87.00;;;;;;5016271;28;20374;-76
2021/12/14 04:56:46;;;;;;;11.23;4.80;;;-0.40;86.80;;;;;;5014973;28;20026;-76
2021/12/14 04:59:23;;;;;;;11.68;4.82;;;-0.10;85.90;;;;;;5018250;28;20018;-75
2021/12/14 05:01:51;;;;;;;8.98;4.32;;;0.20;86.10;;;;;;5015584;28;20029;-76
2021/12/14 05:04:21;;;;;;;6.60;3.20;;;0.30;86.50;;;;;;5019062;28;20041;-75
2021/12/14 05:06:51;;;;;;;6.68;3.72;;;0.40;86.00;;;;;;5033326;28;20332;-75
2021/12/14 05:09:22;;;;;;;4.25;2.30;;;0.60;85.80;;;;;;5017994;28;20022;-76
2021/12/14 05:11:51;;;;;;;4.95;2.00;;;0.90;85.70;;;;;;5018890;28;20022;-74
2021/12/14 05:14:17;;;;;;;3.58;1.80;;;1.20;85.30;;;;;;5017805;28;20110;-76
2021/12/14 05:16:43;;;;;;;4.05;1.88;;;1.40;85.50;;;;;;5018486;28;20046;-76
2021/12/14 05:19:11;;;;;;;7.75;3.90;;;1.60;85.60;;;;;;5018414;28;20378;-76
2021/12/14 05:21:44;;;;;;;330.90;81.13;;;1.70;85.80;;;;;;5017188;28;20450;-76
2021/12/14 05:24:13;;;;;;;129.52;36.38;;;1.50;86.60;;;;;;5012046;28;20026;-76
2021/12/14 05:26:40;;;;;;;80.30;29.83;;;1.20;87.90;;;;;;5017054;28;20037;-76
2021/12/14 05:29:09;;;;;;;43.65;18.95;;;1.00;87.10;;;;;;5018079;28;20041;-75
2021/12/14 05:31:42;;;;;;;73.53;24.02;;;0.90;86.60;;;;;;5020711;28;20026;-76
2021/12/14 05:34:08;;;;;;;54.22;20.48;;;0.70;87.00;;;;;;5015081;28;20342;-75
2021/12/14 05:36:33;;;;;;;40.15;16.77;;;0.70;86.80;;;;;;5016835;28;20033;-76
2021/12/14 05:39:45;;;;;;;19.83;9.82;;;0.60;86.40;;;;;;5016300;28;20026;-76
2021/12/14 05:44:36;;;;;;;15.57;8.32;;;0.70;86.10;;;;;;5022524;28;20254;-75
2021/12/14 05:47:07;;;;;;;6.32;2.83;;;0.80;86.00;;;;;;5017442;28;20416;-76
2021/12/14 05:49:36;;;;;;;3.88;1.60;;;0.80;85.60;;;;;;5014900;28;20037;-77
2021/12/14 05:52:11;;;;;;;34.65;21.35;;;1.10;85.30;;;;;;5016811;28;20109;-76
2021/12/14 05:54:41;;;;;;;37.53;22.70;;;1.20;85.60;;;;;;5016630;28;20025;-76
2021/12/14 05:57:11;;;;;;;26.05;16.67;;;1.00;87.30;;;;;;5013356;28;20053;-76
2021/12/14 05:59:38;;;;;;;20.58;13.73;;;0.90;86.50;;;;;;5016505;28;20037;-75
2021/12/14 06:02:07;;;;;;;18.63;12.80;;;0.90;86.50;;;;;;5018316;28;20021;-75
2021/12/14 06:04:37;;;;;;;17.83;12.10;;;0.80;86.70;;;;;;4999325;28;20045;-74
2021/12/14 06:07:04;;;;;;;18.83;11.05;;;0.80;86.70;;;;;;5013823;28;20081;-75
2021/12/14 06:09:34;;;;;;;12.98;8.73;;;0.70;86.50;;;;;;5015888;28;20053;-76
2021/12/14 06:12:05;;;;;;;12.23;8.13;;;0.60;86.70;;;;;;5016942;28;20044;-76
2021/12/14 06:14:31;;;;;;;18.10;10.43;;;0.50;86.80;;;;;;5017441;28;20033;-76
2021/12/14 06:17:01;;;;;;;10.18;6.78;;;0.40;86.90;;;;;;5016964;28;20018;-76
2021/12/14 06:19:41;;;;;;;17.55;10.07;;;0.30;86.50;;;;;;5017032;28;20029;-76
2021/12/14 06:22:12;;;;;;;16.15;10.02;;;0.30;86.40;;;;;;4996290;28;20392;-76
2021/12/14 06:24:41;;;;;;;12.02;7.95;;;0.40;85.80;;;;;;5011382;28;20370;-75
2021/12/14 06:27:11;;;;;;;9.80;6.00;;;0.70;85.10;;;;;;5016612;28;20415;-76
2021/12/14 06:29:41;;;;;;;12.73;7.50;;;1.20;85.20;;;;;;5017256;28;20096;-74
2021/12/14 06:32:18;;;;;;;10.73;7.40;;;1.70;85.70;;;;;;5017220;28;20030;-74
2021/12/14 06:34:48;;;;;;;10.45;6.97;;;1.70;85.80;;;;;;5016274;28;20018;-75
2021/12/14 06:37:28;;;;;;;16.58;11.05;;;1.40;86.00;;;;;;5015744;28;20022;-74
2021/12/14 06:39:59;;;;;;;12.73;9.18;;;1.40;85.60;;;;;;5017509;28;20045;-76
2021/12/14 06:42:24;;;;;;;12.27;7.70;;;1.70;84.90;;;;;;5017171;28;20033;-76
2021/12/14 06:44:50;;;;;;;5.75;3.13;;;2.40;85.60;;;;;;5017356;28;20323;-77
2021/12/14 06:47:16;;;;;;;7.03;4.05;;;3.00;85.80;;;;;;5017669;28;20350;-76
2021/12/14 06:49:42;;;;;;;6.40;4.07;;;3.30;85.60;;;;;;5017001;28;20068;-77
2021/12/14 06:52:07;;;;;;;8.30;4.38;;;3.00;85.60;;;;;;5015108;28;20018;-77
2021/12/14 06:54:33;;;;;;;9.43;3.95;;;2.40;86.60;;;;;;5016400;28;20084;-76
2021/12/14 06:57:03;;;;;;;22.35;15.45;;;2.00;86.30;;;;;;5017068;28;20033;-76
2021/12/14 06:59:29;;;;;;;28.92;18.50;;;1.80;85.90;;;;;;5017487;28;20033;-76
2021/12/14 07:02:01;;;;;;;14.25;9.25;;;1.60;85.80;;;;;;5006416;28;20439;-76
2021/12/14 07:04:30;;;;;;;22.02;13.52;;;1.50;84.90;;;;;;4997603;28;20382;-76
2021/12/14 07:07:04;;;;;;;18.52;11.88;;;1.50;85.00;;;;;;5011916;28;20033;-75
2021/12/14 07:09:38;;;;;;;15.50;10.73;;;1.50;84.90;;;;;;5015451;28;20362;-75
2021/12/14 07:12:09;;;;;;;15.40;10.07;;;1.40;85.20;;;;;;5016752;28;20042;-76
2021/12/14 07:14:58;;;;;;;17.63;11.90;;;1.40;85.30;;;;;;5006749;28;20129;-75
2021/12/14 07:17:27;;;;;;;18.77;11.10;;;1.40;85.20;;;;;;4999189;28;20100;-75
2021/12/14 07:20:04;;;;;;;13.70;9.80;;;1.40;84.80;;;;;;4996297;28;20034;-76
2021/12/14 07:22:52;;;;;;;16.25;9.57;;;1.40;84.70;;;;;;4996279;28;20046;-77
2021/12/14 07:25:35;;;;;;;7.05;4.55;;;1.40;85.20;;;;;;4997211;28;20326;-76
2021/12/14 07:28:10;;;;;;;16.25;9.80;;;1.30;85.20;;;;;;5013516;28;20045;-75
2021/12/14 07:30:40;;;;;;;9.63;6.47;;;1.40;85.00;;;;;;5016683;28;20025;-77
2021/12/14 07:33:10;;;;;;;6.22;4.07;;;1.40;84.80;;;;;;5015287;28;20161;-76
2021/12/14 07:35:52;;;;;;;7.68;4.90;;;1.60;84.40;;;;;;5015592;28;20025;-75
2021/12/14 07:38:27;;;;;;;7.60;4.80;;;2.20;84.40;;;;;;5015407;28;20346;-76
2021/12/14 07:41:30;;;;;;;10.10;6.70;;;2.70;84.80;;;;;;5015418;28;20116;-75
2021/12/14 07:44:18;;;;;;;9.70;5.75;;;2.80;84.70;;;;;;5004358;28;20045;-76
2021/12/14 07:46:54;;;;;;;5.35;2.80;;;2.80;84.50;;;;;;5015607;28;20030;-76
2021/12/14 07:49:32;;;;;;;3.22;1.70;;;3.00;84.20;;;;;;5016296;28;20037;-76
2021/12/14 07:52:21;;;;;;;4.90;2.10;;;3.50;84.60;;;;;;5013279;28;20022;-76
2021/12/14 07:54:59;;;;;;;5.78;3.28;;;3.90;85.00;;;;;;5015491;28;20038;-76
2021/12/14 07:57:28;;;;;;;30.90;16.77;;;4.20;84.80;;;;;;5016126;28;20120;-77
2021/12/14 08:00:01;;;;;;;20.38;13.15;;;4.50;84.60;;;;;;5015424;28;20496;-76
2021/12/14 08:02:38;;;;;;;15.30;9.00;;;4.50;84.30;;;;;;5016379;28;20065;-76
2021/12/14 08:05:19;;;;;;;7.43;4.88;;;4.40;84.20;;;;;;5015905;28;20022;-77
2021/12/14 08:07:56;;;;;;;31.35;20.70;;;4.40;83.90;;;;;;5015254;28;20034;-76
2021/12/14 08:10:27;;;;;;;11.55;7.38;;;4.50;83.90;;;;;;5016188;28;20029;-75
2021/12/14 08:13:04;;;;;;;7.50;4.25;;;4.50;83.90;;;;;;5000812;28;20029;-76
2021/12/14 08:15:41;;;;;;;10.40;4.53;;;4.40;84.00;;;;;;5009472;28;20022;-76
2021/12/14 08:18:13;;;;;;;40.03;25.60;;;4.60;83.80;;;;;;4996458;28;20037;-76
2021/12/14 08:20:53;;;;;;;23.58;13.98;;;4.80;83.90;;;;;;4996381;28;20030;-77
2021/12/14 08:23:32;;;;;;;6.38;4.10;;;5.00;83.90;;;;;;4995312;28;20030;-76
2021/12/14 08:26:05;;;;;;;32.25;20.52;;;5.00;83.80;;;;;;4996642;28;20034;-77
2021/12/14 08:28:52;;;;;;;18.00;11.10;;;4.40;88.00;;;;;;4995305;28;20053;-76
2021/12/14 08:31:19;;;;;;;16.50;12.02;;;3.90;87.00;;;;;;4996360;28;20031;-77
2021/12/14 08:33:57;;;;;;;18.00;11.27;;;3.70;85.10;;;;;;4996590;28;20051;-76
2021/12/14 08:36:23;;;;;;;19.23;11.32;;;3.80;84.40;;;;;;4996448;28;20101;-76
2021/12/14 08:39:05;;;;;;;24.15;14.18;;;3.70;85.20;;;;;;4994157;28;20352;-76
2021/12/14 08:41:31;;;;;;;44.75;24.75;;;3.50;85.70;;;;;;5005094;28;20092;-76
2021/12/14 08:43:57;;;;;;;39.65;23.05;;;3.50;84.60;;;;;;5014869;28;20024;-76
2021/12/14 08:46:29;;;;;;;22.58;13.98;;;3.60;84.90;;;;;;5014982;28;20068;-77
2021/12/14 08:48:59;;;;;;;28.50;17.55;;;3.60;85.20;;;;;;4999670;28;20039;-77
2021/12/14 08:51:34;;;;;;;44.45;26.85;;;3.70;84.50;;;;;;4995059;28;20050;-77
2021/12/14 08:54:05;;;;;;;31.98;19.60;;;3.70;86.20;;;;;;4994042;28;20031;-76
2021/12/14 08:56:35;;;;;;;30.63;17.05;;;3.60;86.30;;;;;;4995351;28;20022;-77
2021/12/14 08:59:01;;;;;;;20.27;14.10;;;3.40;87.10;;;;;;4996152;28;20145;-77
2021/12/14 09:01:30;;;;;;;17.63;12.65;;;3.40;86.30;;;;;;4996291;28;20412;-77
2021/12/14 09:04:19;;;;;;;22.95;14.93;;;3.40;86.30;;;;;;4995217;28;20053;-77
2021/12/14 09:06:48;;;;;;;23.23;16.10;;;3.40;85.30;;;;;;4996158;28;20113;-77
2021/12/14 09:09:17;;;;;;;27.08;19.42;;;3.50;85.60;;;;;;4994935;28;20389;-77
2021/12/14 09:11:46;;;;;;;24.42;16.85;;;3.50;85.40;;;;;;5007116;28;20014;-77
2021/12/14 09:14:14;;;;;;;26.50;18.63;;;3.50;86.80;;;;;;5014655;28;20315;-77
2021/12/14 09:16:43;;;;;;;38.65;23.30;;;3.50;86.70;;;;;;5014801;28;20045;-77
2021/12/14 09:19:20;;;;;;;27.42;19.70;;;3.60;85.80;;;;;;5017961;28;20445;-77
2021/12/14 09:21:52;;;;;;;24.33;18.85;;;3.90;84.80;;;;;;5018392;28;20025;-76
2021/12/14 09:24:20;;;;;;;23.48;17.70;;;4.20;84.60;;;;;;5012436;28;20044;-76
2021/12/14 09:26:56;;;;;;;19.70;13.90;;;4.50;84.70;;;;;;5000055;28;20038;-76
2021/12/14 09:29:24;;;;;;;16.25;11.82;;;4.50;85.30;;;;;;4998203;28;20343;-76
2021/12/14 09:31:52;;;;;;;17.75;13.15;;;4.80;83.90;;;;;;4999852;28;20022;-76
2021/12/14 09:34:21;;;;;;;65.20;35.03;;;5.00;84.30;;;;;;5013214;28;20026;-77
2021/12/14 09:36:51;;;;;;;45.05;26.10;;;5.00;84.80;;;;;;4999775;28;20025;-77
2021/12/14 09:39:25;;;;;;;18.60;14.13;;;5.20;84.30;;;;;;5018454;28;20101;-77
2021/12/14 09:41:53;;;;;;;12.80;9.30;;;5.60;83.50;;;;;;5014706;28;20089;-76
2021/12/14 09:44:22;;;;;;;30.95;23.83;;;5.90;84.80;;;;;;4999226;28;20367;-77
2021/12/14 09:46:49;;;;;;;29.65;21.45;;;6.00;86.50;;;;;;5017530;28;20026;-77
2021/12/14 09:49:16;;;;;;;20.10;11.60;;;6.10;86.60;;;;;;5017777;28;20049;-77
2021/12/14 09:51:50;;;;;;;34.80;21.63;;;6.50;84.80;;;;;;5017488;28;20312;-77
2021/12/14 09:54:19;;;;;;;19.85;12.52;;;6.80;85.00;;;;;;5016894;28;20022;-76
2021/12/14 09:57:03;;;;;;;50.00;24.27;;;7.20;85.60;;;;;;4998423;28;20320;-77
2021/12/14 09:59:30;;;;;;;24.83;14.25;;;7.30;91.60;;;;;;5012174;28;20328;-76
2021/12/14 10:02:08;;;;;;;64.85;36.30;;;7.10;95.20;;;;;;4998991;28;20058;-77
2021/12/14 10:04:39;;;;;;;90.25;48.30;;;7.00;97.30;;;;;;4997788;28;20363;-77
2021/12/14 10:07:08;;;;;;;25.75;16.65;;;6.90;97.10;;;;;;4996382;28;20030;-77
2021/12/14 10:09:41;;;;;;;18.27;12.85;;;6.80;97.90;;;;;;4998775;28;20120;-77
2021/12/14 10:14:52;;;;;;;25.83;15.73;;;7.10;98.00;;;;;;5017287;28;20362;-77
2021/12/14 10:17:21;;;;;;;26.52;17.25;;;7.50;97.10;;;;;;5018245;28;20057;-76
2021/12/14 10:19:47;;;;;;;56.13;25.90;;;7.70;98.00;;;;;;5018103;28;20018;-77
2021/12/14 10:22:17;;;;;;;114.60;44.17;;;7.70;98.00;;;;;;5015732;28;20030;-77
2021/12/14 10:24:43;;;;;;;88.95;38.17;;;7.70;98.00;;;;;;5017050;28;20021;-77
2021/12/14 10:27:12;;;;;;;49.90;25.00;;;8.00;98.00;;;;;;5016901;28;20411;-77
2021/12/14 10:29:39;;;;;;;44.53;23.65;;;8.30;98.00;;;;;;5017501;28;20046;-77
2021/12/14 10:32:14;;;;;;;38.92;19.75;;;8.20;98.00;;;;;;5017992;28;20033;-77
2021/12/14 10:34:45;;;;;;;28.35;16.02;;;8.00;98.00;;;;;;5016136;28;20022;-77
2021/12/14 10:37:20;;;;;;;23.30;14.85;;;7.80;98.00;;;;;;5016509;28;20021;-78
2021/12/14 10:45:06;;;;;;;15.75;8.45;;;7.80;98.00;;;;;;5016972;28;20181;-77
2021/12/14 10:47:32;;;;;;;12.02;7.28;;;7.90;98.00;;;;;;5016238;28;20120;-77
2021/12/14 10:50:00;;;;;;;12.23;7.32;;;8.10;98.00;;;;;;5017407;28;20330;-77
2021/12/14 10:52:29;;;;;;;15.13;7.97;;;8.10;98.00;;;;;;5014678;28;20036;-77
2021/12/14 10:54:59;;;;;;;12.65;6.95;;;8.60;98.00;;;;;;5017218;28;20030;-77
2021/12/14 10:57:30;;;;;;;9.82;5.20;;;9.60;98.00;;;;;;5016416;28;20026;-77
2021/12/14 10:59:57;;;;;;;9.18;4.43;;;10.50;98.00;;;;;;5017064;28;20294;-77
2021/12/14 11:02:27;;;;;;;7.22;4.10;;;10.60;95.00;;;;;;5016339;28;20099;-77
2021/12/14 11:04:58;;;;;;;6.80;3.53;;;10.30;94.60;;;;;;5016003;28;20026;-76
2021/12/14 11:07:38;;;;;;;6.28;3.72;;;10.10;95.10;;;;;;5014977;28;20049;-77
2021/12/14 11:10:19;;;;;;;8.50;4.80;;;10.00;95.90;;;;;;5016846;28;20029;-77
2021/12/14 11:12:49;;;;;;;8.27;5.00;;;9.80;96.40;;;;;;5012590;28;20025;-77
2021/12/14 11:15:30;;;;;;;9.32;5.30;;;9.40;97.10;;;;;;5014893;28;20033;-76
2021/12/14 11:18:08;;;;;;;12.60;7.28;;;8.80;98.00;;;;;;5017113;28;20029;-77
2021/12/14 11:20:51;;;;;;;10.38;6.65;;;8.70;98.00;;;;;;5015709;28;20478;-75
2021/12/14 11:23:29;;;;;;;10.85;6.22;;;8.70;98.00;;;;;;5015648;28;20026;-76
2021/12/14 11:26:11;;;;;;;12.38;6.90;;;8.70;98.00;;;;;;5015774;28;20029;-77
2021/12/14 11:28:42;;;;;;;11.10;5.90;;;8.60;98.00;;;;;;5016862;28;20037;-76
2021/12/14 11:31:34;;;;;;;9.52;5.05;;;8.90;98.00;;;;;;5016340;28;20096;-77
2021/12/14 11:34:08;;;;;;;9.85;4.80;;;9.10;98.00;;;;;;5015048;28;20033;-75
2021/12/14 11:36:39;;;;;;;7.63;4.60;;;9.60;97.20;;;;;;5015726;28;20030;-76
2021/12/14 11:39:11;;;;;;;6.95;4.25;;;10.40;95.90;;;;;;5014159;28;20075;-76
2021/12/14 11:41:49;;;;;;;10.30;4.40;;;10.80;94.20;;;;;;5015943;28;20033;-76
2021/12/14 11:44:29;;;;;;;7.68;4.20;;;10.80;93.90;;;;;;5006872;28;20076;-77
2021/12/14 11:46:55;;;;;;;7.72;4.07;;;10.90;93.60;;;;;;5016805;28;20120;-77
2021/12/14 11:49:23;;;;;;;10.75;6.40;;;11.20;92.90;;;;;;5016175;28;20419;-77
2021/12/14 11:51:50;;;;;;;13.82;6.45;;;11.60;91.20;;;;;;5015855;28;20108;-75
2021/12/14 11:54:19;;;;;;;9.80;5.45;;;11.20;91.50;;;;;;5015416;28;20050;-77
2021/12/14 11:56:45;;;;;;;9.35;5.32;;;10.70;92.70;;;;;;5016484;28;20061;-77
2021/12/14 11:59:11;;;;;;;9.25;6.00;;;10.30;94.10;;;;;;5014460;28;20025;-77
2021/12/14 12:01:46;;;;;;;7.75;4.88;;;9.90;95.20;;;;;;5015022;28;20026;-76
2021/12/14 12:04:11;;;;;;;9.23;4.53;;;9.70;96.30;;;;;;5009939;28;20050;-75
2021/12/14 12:09:37;;;;;;;5.00;2.67;;;10.10;96.60;;;;;;5021946;28;20111;-76
2021/12/14 12:12:08;;;;;;;5.45;2.60;;;10.80;95.00;;;;;;5016103;28;20064;-76
2021/12/14 12:14:47;;;;;;;5.85;2.70;;;11.50;92.00;;;;;;4996593;28;20026;-76
2021/12/14 12:17:22;;;;;;;5.78;2.72;;;12.10;89.90;;;;;;5014759;28;20129;-74
2021/12/14 12:20:07;;;;;;;5.90;2.75;;;12.70;87.20;;;;;;5025873;28;20026;-74
2021/12/14 12:22:46;;;;;;;6.40;2.83;;;12.90;86.20;;;;;;5009728;28;20045;-74
2021/12/14 12:25:20;;;;;;;6.75;3.17;;;13.40;85.80;;;;;;5018724;28;20026;-74
2021/12/14 12:27:53;;;;;;;6.93;3.92;;;13.60;84.50;;;;;;5008309;28;20029;-74
2021/12/14 12:30:32;;;;;;;5.43;3.10;;;13.50;85.40;;;;;;5013203;28;20033;-74
2021/12/14 12:33:09;;;;;;;8.10;3.90;;;13.30;85.10;;;;;;5006616;28;20714;-74
2021/12/14 12:35:52;;;;;;;5.90;3.33;;;13.20;85.90;;;;;;5007667;28;20026;-74
2021/12/14 12:38:45;;;;;;;5.55;3.00;;;13.00;86.20;;;;;;5016641;28;20041;-74
2021/12/14 12:41:34;;;;;;;5.10;3.05;;;12.70;86.20;;;;;;5024569;28;20032;-75
2021/12/14 12:44:21;;;;;;;5.00;2.60;;;12.70;87.90;;;;;;5009529;28;20025;-75
2021/12/14 12:47:10;;;;;;;6.78;3.20;;;12.80;86.30;;;;;;4996233;28;20109;-74
2021/12/14 12:49:57;;;;;;;4.65;2.42;;;13.00;87.30;;;;;;5007727;28;20470;-75
2021/12/14 12:52:30;;;;;;;4.35;2.40;;;13.20;85.70;;;;;;5003393;28;20084;-74
2021/12/14 12:55:11;;;;;;;5.35;2.50;;;13.30;84.60;;;;;;5005621;28;20022;-74
2021/12/14 12:57:53;;;;;;;5.13;2.65;;;13.20;84.60;;;;;;5012423;28;20022;-74
2021/12/14 13:00:25;;;;;;;6.50;3.25;;;13.00;86.10;;;;;;5016305;28;20109;-74
2021/12/14 13:02:57;;;;;;;6.60;3.58;;;12.80;87.30;;;;;;5019249;28;20021;-74
2021/12/14 13:05:28;;;;;;;7.30;3.20;;;12.30;87.00;;;;;;5018411;28;20054;-74
2021/12/14 13:08:43;;;;;;;7.57;4.28;;;12.10;87.80;;;;;;5017848;28;20036;-74
2021/12/14 13:11:09;;;;;;;5.05;3.08;;;12.00;88.30;;;;;;4998682;28;20035;-74
2021/12/14 13:13:42;;;;;;;6.72;3.80;;;11.70;89.00;;;;;;5010163;28;20040;-74
2021/12/14 13:16:14;;;;;;;7.03;3.67;;;11.60;90.30;;;;;;5017719;28;20025;-73
2021/12/14 13:18:39;;;;;;;6.38;3.10;;;11.60;90.40;;;;;;5018688;28;20033;-74
2021/12/14 13:21:24;;;;;;;6.88;3.60;;;11.60;90.30;;;;;;5013591;28;20026;-74
2021/12/14 13:24:03;;;;;;;5.55;3.05;;;11.70;90.70;;;;;;5011929;28;20108;-74
2021/12/14 13:26:40;;;;;;;7.80;3.17;;;11.60;90.20;;;;;;5038500;28;20036;-74
2021/12/14 13:29:11;;;;;;;6.07;3.17;;;11.60;90.70;;;;;;5021005;28;20103;-74
2021/12/14 13:31:46;;;;;;;7.38;3.10;;;11.50;90.70;;;;;;5011165;28;20097;-74
2021/12/14 13:34:29;;;;;;;5.35;2.72;;;11.10;91.50;;;;;;5009538;28;20026;-74
2021/12/14 13:36:56;;;;;;;7.60;3.13;;;10.90;92.10;;;;;;5014308;28;20030;-75
2021/12/14 13:39:23;;;;;;;5.38;2.88;;;10.70;92.60;;;;;;5014287;28;20026;-74
2021/12/14 13:41:58;;;;;;;6.68;3.30;;;10.60;93.30;;;;;;5017497;28;20045;-74
2021/12/14 13:44:35;;;;;;;4.72;2.53;;;10.60;93.90;;;;;;5015483;28;20049;-74